Miguel Cane, Argentina
Current Conditions -  °F | °C
As of 8:00 AM on Wednesday 28 Jan 2015 (Local Time) from SAOC Reporting Station
Scattered Clouds Scattered Clouds  
Wind Chill: 68°   Ceiling: Unl
Heat Index: 68°   Visibility: 6mi
Dew Point: 61°   Wind: 21mph
Humidity: 78%   Direction: 160°SSE
Pressure: 29.83"   Gusts: NA
Location:  36.21°S, 63.48°W
Report Text: SAOC 281100Z 16018KT 9999 SCT025 FEW040CB20/16 Q1010
Loading
Personal Weather Stations






























Interactive Weather Map New forecast layout! Learn more

10-Day Weather Forecast

Advertisements
Track Severe Weather on mobile